Time;durP1;ratioP1;P1;durP2;ratioP2;P2;SDS_P1;SDS_P2;PMS_P1;PMS_P2;Temp;Humidity;BMP_temperature;BMP_pressure;BME280_temperature;BME280_humidity;BME280_pressure;Samples;Min_cycle;Max_cycle;Signal;HPM_P1;HPM_P2
2022/11/15 00:01:19;;;;;;;30.97;28.10;;;;;;;21.44;37.76;95612.34;6157520;28;106328;-81
2022/11/15 00:04:23;;;;;;;32.27;29.37;;;;;;;21.45;37.91;95608.59;6160941;28;104568;-81
2022/11/15 00:07:26;;;;;;;30.87;27.97;;;;;;;21.42;37.83;95603.84;6168439;28;105322;-81
2022/11/15 00:10:57;;;;;;;30.20;27.60;;;;;;;21.49;37.81;95606.94;6155762;28;106327;-80
2022/11/15 00:14:02;;;;;;;30.70;28.00;;;;;;;21.46;37.71;95612.84;6169009;28;104448;-81
2022/11/15 00:17:05;;;;;;;30.63;27.87;;;;;;;21.45;37.52;95608.59;6142480;28;106810;-82
2022/11/15 00:20:09;;;;;;;30.87;28.10;;;;;;;21.44;38.11;95607.03;6166205;28;106741;-81
2022/11/15 00:23:12;;;;;;;30.27;27.37;;;;;;;21.43;37.78;95603.56;6168641;28;103294;-81
2022/11/15 00:26:18;;;;;;;30.97;28.03;;;;;;;21.46;38.02;95605.66;6168485;28;102756;-81
2022/11/15 00:29:22;;;;;;;32.47;29.50;;;;;;;21.45;37.59;95603.28;6160460;28;104250;-82
2022/11/15 00:32:25;;;;;;;29.97;27.17;;;;;;;21.45;37.66;95600.63;6144823;28;106380;-81
2022/11/15 00:35:28;;;;;;;32.07;29.03;;;;;;;21.42;37.76;95591.34;6160343;28;103104;-80
2022/11/15 00:38:33;;;;;;;31.40;28.60;;;;;;;21.43;37.61;95587.59;6161549;28;104919;-81
2022/11/15 00:41:37;;;;;;;32.13;28.93;;;;;;;21.41;37.71;95589.75;6166969;28;107691;-81
2022/11/15 00:44:41;;;;;;;31.73;28.90;;;;;;;21.41;37.73;95589.75;6166388;28;102631;-80
2022/11/15 00:47:45;;;;;;;31.60;28.60;;;;;;;21.44;37.54;95580.41;6167133;28;103528;-81
2022/11/15 00:50:48;;;;;;;31.43;28.57;;;;;;;21.42;37.45;95590.53;6159139;28;104592;-82
2022/11/15 00:53:51;;;;;;;32.00;28.93;;;;;;;21.42;37.49;95580.69;6167373;28;103368;-81
2022/11/15 00:56:56;;;;;;;33.27;30.20;;;;;;;21.42;37.75;95580.69;6166905;28;103901;-81
2022/11/15 00:59:59;;;;;;;32.17;29.20;;;;;;;21.43;37.69;95581.47;6167345;28;104238;-80
2022/11/15 01:03:02;;;;;;;30.97;28.17;;;;;;;21.43;37.31;95576.94;6158699;28;104539;-81
2022/11/15 01:06:06;;;;;;;32.67;29.67;;;;;;;21.43;37.74;95573.50;6167327;28;103516;-81
2022/11/15 01:09:09;;;;;;;31.20;28.50;;;;;;;21.45;37.26;95574.78;6167583;28;102841;-81
2022/11/15 01:12:14;;;;;;;33.00;29.83;;;;;;;21.42;37.44;95572.69;6165279;28;104159;-80
2022/11/15 01:15:17;;;;;;;33.23;30.13;;;;;;;21.42;37.27;95579.91;6160858;28;104615;-81
2022/11/15 01:18:20;;;;;;;32.13;28.97;;;;;;;21.40;37.49;95574.84;6165650;28;103767;-81
2022/11/15 01:21:23;;;;;;;32.00;29.00;;;;;;;21.42;37.15;95577.22;6166138;28;104326;-82
2022/11/15 01:24:26;;;;;;;32.87;29.67;;;;;;;21.42;37.36;95569.25;6159490;28;102832;-82
2022/11/15 01:27:31;;;;;;;32.20;29.30;;;;;;;21.40;37.15;95566.88;6166570;28;107725;-82
2022/11/15 01:30:34;;;;;;;33.67;30.57;;;;;;;21.39;37.21;95562.63;6166997;28;107351;-81
2022/11/15 01:33:38;;;;;;;32.93;29.83;;;;;;;21.37;36.95;95567.44;6166736;28;103302;-81
2022/11/15 01:36:41;;;;;;;33.30;30.07;;;;;;;21.41;37.03;95579.09;6159378;28;107186;-81
2022/11/15 01:40:01;;;;;;;33.97;30.60;;;;;;;21.41;37.03;95570.31;6167245;28;103310;-81
2022/11/15 01:43:21;;;;;;;32.83;29.83;;;;;;;21.41;37.12;95573.78;6167352;28;103493;-81
2022/11/15 01:46:31;;;;;;;33.77;30.47;;;;;;;21.41;37.06;95573.78;6163269;28;104415;-81
2022/11/15 01:49:36;;;;;;;32.23;29.13;;;;;;;21.40;36.93;95566.88;6139001;28;105107;-81
2022/11/15 01:52:41;;;;;;;32.00;29.00;;;;;;;21.39;36.89;95577.81;6165810;28;103594;-82
2022/11/15 01:55:45;;;;;;;31.40;28.50;;;;;;;21.40;37.00;95574.84;6166688;28;108170;-81
2022/11/15 01:58:51;;;;;;;31.53;28.63;;;;;;;21.39;37.25;95565.28;6157500;28;104975;-80
2022/11/15 02:01:55;;;;;;;32.03;29.13;;;;;;;21.36;36.93;95554.44;6166629;28;102846;-80
2022/11/15 02:04:58;;;;;;;30.77;27.93;;;;;;;21.37;37.19;95562.13;6166847;28;105606;-81
2022/11/15 02:08:02;;;;;;;31.97;28.97;;;;;;;21.37;36.52;95567.44;6166007;28;106639;-80
2022/11/15 02:11:08;;;;;;;32.10;29.20;;;;;;;21.40;36.54;95574.06;6156312;28;103290;-80
2022/11/15 02:14:14;;;;;;;32.90;29.80;;;;;;;21.35;36.97;95572.28;6167122;28;103369;-80
2022/11/15 02:17:32;;;;;;;31.47;28.60;;;;;;;21.35;36.62;95572.28;6165786;28;103186;-80
2022/11/15 02:20:53;;;;;;;32.07;29.17;;;;;;;21.39;36.48;95567.94;6147414;28;104500;-80
2022/11/15 02:24:19;;;;;;;31.87;28.90;;;;;;;21.37;36.77;95570.13;6159540;28;103256;-80
2022/11/15 02:27:47;;;;;;;33.37;30.33;;;;;;;21.39;36.38;95564.50;6166745;28;104773;-82
2022/11/15 02:30:58;;;;;;;30.53;27.80;;;;;;;21.38;36.58;95562.91;6155745;28;104746;-82
2022/11/15 02:34:09;;;;;;;30.60;27.87;;;;;;;21.38;36.34;95562.91;6157425;28;103319;-82
2022/11/15 02:37:17;;;;;;;30.63;27.87;;;;;;;21.38;36.63;95566.38;6152540;28;104237;-81
2022/11/15 02:40:28;;;;;;;30.43;27.73;;;;;;;21.38;36.55;95565.59;6166163;28;103024;-81
2022/11/15 02:47:13;;;;;;;30.97;27.97;;;;;;;21.39;36.38;95562.63;6147908;28;102967;-79
2022/11/15 02:50:19;;;;;;;31.10;28.30;;;;;;;21.39;36.28;95562.63;6164733;28;103233;-79
2022/11/15 02:53:26;;;;;;;30.97;28.13;;;;;;;21.36;36.19;95568.53;6166173;28;104164;-79
2022/11/15 02:56:29;;;;;;;30.53;27.73;;;;;;;21.36;36.22;95562.41;6157410;28;103298;-78
2022/11/15 03:00:03;;;;;;;30.57;27.87;;;;;;;21.38;36.20;95563.72;6165273;28;106881;-81
2022/11/15 03:03:20;;;;;;;30.23;27.47;;;;;;;21.39;36.60;95570.63;6165612;28;104617;-82
2022/11/15 03:06:32;;;;;;;30.40;27.83;;;;;;;21.37;36.12;95561.34;6162092;28;103501;-81
2022/11/15 03:09:40;;;;;;;29.00;26.30;;;;;;;21.36;36.23;95560.53;6162050;28;105338;-82
2022/11/15 03:12:51;;;;;;;29.63;26.97;;;;;;;21.36;36.07;95559.75;6165760;28;102989;-82
2022/11/15 03:16:03;;;;;;;31.00;28.20;;;;;;;21.36;35.94;95560.53;6160029;28;102879;-81
2022/11/15 03:19:15;;;;;;;29.83;27.13;;;;;;;21.36;36.09;95565.88;6157913;28;103386;-82
2022/11/15 03:22:21;;;;;;;29.90;27.33;;;;;;;21.39;36.03;95565.28;6169047;28;106621;-82
2022/11/15 03:25:26;;;;;;;30.67;27.93;;;;;;;21.35;36.06;95560.84;6168905;28;102901;-82
2022/11/15 03:28:35;;;;;;;30.20;27.53;;;;;;;21.36;36.44;95560.53;6168828;28;103625;-82
2022/11/15 03:31:47;;;;;;;31.27;28.33;;;;;;;21.36;35.97;95557.88;6160550;28;103480;-81
2022/11/15 03:35:00;;;;;;;30.00;27.30;;;;;;;21.34;36.27;95551.25;6171350;28;102974;-81
2022/11/15 03:38:12;;;;;;;30.00;27.50;;;;;;;21.36;36.09;95549.09;6169345;28;103257;-82
2022/11/15 03:41:23;;;;;;;29.87;27.17;;;;;;;21.37;35.71;95540.03;6160942;28;104468;-82
2022/11/15 03:44:37;;;;;;;29.30;26.70;;;;;;;21.37;36.15;95540.81;6169514;28;105377;-82
2022/11/15 03:47:44;;;;;;;28.80;26.33;;;;;;;21.36;35.96;95536.59;6169174;28;106580;-82
2022/11/15 03:50:49;;;;;;;29.10;26.40;;;;;;;21.35;35.77;95539.53;6163515;28;107692;-83
2022/11/15 03:53:53;;;;;;;29.53;26.73;;;;;;;21.35;36.02;95534.22;6166443;28;105102;-84
2022/11/15 03:56:56;;;;;;;28.80;26.30;;;;;;;21.37;35.90;95530.19;6177030;28;103276;-81
2022/11/15 03:59:59;;;;;;;29.43;26.83;;;;;;;21.37;35.77;95535.50;6167394;28;102963;-81
2022/11/15 04:03:02;;;;;;;27.40;25.00;;;;;;;21.34;35.70;95530.75;6166361;28;104452;-80
2022/11/15 04:06:07;;;;;;;26.77;24.47;;;;;;;21.32;35.97;95522.25;6160950;28;103711;-81
2022/11/15 04:09:10;;;;;;;28.30;25.60;;;;;;;21.34;36.09;95528.09;6168669;28;105004;-83
2022/11/15 04:12:30;;;;;;;27.90;25.30;;;;;;;21.30;35.68;95524.41;6167390;28;102993;-81
2022/11/15 04:15:33;;;;;;;27.80;25.33;;;;;;;21.36;35.48;95533.94;6159786;28;107716;-81
2022/11/15 04:18:36;;;;;;;26.80;24.53;;;;;;;21.34;35.86;95521.97;6166636;28;106727;-82
2022/11/15 04:25:02;;;;;;;24.83;22.67;;;;;;;21.41;37.61;95512.53;6164703;28;103103;-81
2022/11/15 04:28:08;;;;;;;25.57;23.27;;;;;;;21.53;40.00;95517.44;6158854;28;103647;-81
2022/11/15 04:31:11;;;;;;;24.67;22.33;;;;;;;21.60;40.24;95509.84;6166005;28;105259;-82
2022/11/15 04:34:14;;;;;;;25.10;22.77;;;;;;;21.63;40.17;95514.59;6166955;28;104266;-82
2022/11/15 04:37:18;;;;;;;23.10;21.00;;;;;;;21.69;39.92;95520.66;6166272;28;104244;-79
2022/11/15 04:40:22;;;;;;;22.40;20.30;;;;;;;21.70;40.11;95511.56;6158561;28;104357;-81
2022/11/15 04:43:25;;;;;;;22.37;20.27;;;;;;;21.69;39.81;95516.09;6167127;28;106251;-83
2022/11/15 04:46:28;;;;;;;22.10;20.20;;;;;;;21.66;39.87;95516.66;6167128;28;104355;-82
2022/11/15 04:49:32;;;;;;;21.90;19.80;;;;;;;21.66;39.88;95515.88;6160110;28;105220;-80
2022/11/15 04:52:37;;;;;;;24.47;19.57;;;;;;;21.65;40.05;95514.28;6167173;28;106912;-80
2022/11/15 04:55:40;;;;;;;21.40;19.40;;;;;;;21.64;39.87;95513.50;6167762;28;103295;-80
2022/11/15 04:58:43;;;;;;;19.73;17.90;;;;;;;21.69;39.59;95515.31;6168727;28;103116;-81
2022/11/15 05:01:47;;;;;;;22.60;20.43;;;;;;;21.70;40.36;95517.69;6158821;28;103841;-81
2022/11/15 05:04:49;;;;;;;21.40;19.37;;;;;;;21.73;40.48;95517.09;6169798;28;105829;-83
2022/11/15 05:07:53;;;;;;;20.47;18.47;;;;;;;21.74;40.92;95517.91;6170635;28;102815;-83
2022/11/15 05:10:57;;;;;;;20.77;18.87;;;;;;;21.73;41.06;95522.44;6170667;28;103964;-83
2022/11/15 05:14:00;;;;;;;22.37;20.17;;;;;;;21.74;41.36;95524.00;6162741;28;106348;-83
2022/11/15 05:17:03;;;;;;;20.97;18.97;;;;;;;21.76;41.42;95516.50;6171620;28;102744;-84
2022/11/15 05:20:08;;;;;;;21.83;19.83;;;;;;;21.74;41.04;95513.34;6169500;28;105122;-81
2022/11/15 05:23:13;;;;;;;21.20;19.20;;;;;;;21.80;41.53;95522.03;6167877;28;102730;-80
2022/11/15 05:26:17;;;;;;;21.27;19.30;;;;;;;21.80;41.80;95524.72;6166430;28;103091;-83
2022/11/15 05:29:21;;;;;;;23.07;20.67;;;;;;;21.74;41.42;95529.34;6171771;28;103883;-84
2022/11/15 05:32:26;;;;;;;22.20;20.10;;;;;;;21.66;41.20;95534.53;6170876;28;103243;-81
2022/11/15 05:35:32;;;;;;;20.53;18.63;;;;;;;21.55;41.12;95525.91;6162495;28;103437;-81
2022/11/15 05:38:38;;;;;;;20.80;18.90;;;;;;;21.51;41.13;95530.25;6170317;28;106920;-81
2022/11/15 05:41:46;;;;;;;20.40;18.60;;;;;;;21.49;40.66;95522.53;6169036;28;103901;-81
2022/11/15 05:44:50;;;;;;;20.57;18.57;;;;;;;21.45;40.68;95521.53;6167977;28;103342;-81
2022/11/15 05:47:56;;;;;;;19.97;18.17;;;;;;;21.41;40.36;95528.50;6162894;28;102766;-81
2022/11/15 05:51:00;;;;;;;20.10;18.20;;;;;;;21.44;40.45;95530.59;6170962;28;102879;-80
2022/11/15 05:54:05;;;;;;;19.50;17.80;;;;;;;21.40;40.32;95529.59;6168319;28;103630;-80
2022/11/15 05:57:08;;;;;;;21.33;19.40;;;;;;;21.40;40.02;95524.28;6162567;28;102745;-79
2022/11/15 06:00:13;;;;;;;20.97;19.17;;;;;;;21.41;39.94;95531.19;6161816;28;103291;-80
2022/11/15 06:03:16;;;;;;;19.83;18.00;;;;;;;21.43;39.89;95529.00;6167649;28;103235;-81
2022/11/15 06:06:19;;;;;;;20.27;18.37;;;;;;;21.42;39.65;95530.09;6167689;28;102716;-80
2022/11/15 06:09:24;;;;;;;20.03;18.17;;;;;;;21.39;39.95;95522.69;6159299;28;103045;-82
2022/11/15 06:12:27;;;;;;;19.20;17.40;;;;;;;21.39;39.48;95522.69;6168006;28;106992;-81
2022/11/15 06:15:31;;;;;;;19.60;17.60;;;;;;;21.41;39.13;95530.38;6168059;28;104924;-80
2022/11/15 06:18:34;;;;;;;18.47;16.77;;;;;;;21.40;39.34;95524.28;6167948;28;104576;-80
2022/11/15 06:21:38;;;;;;;19.23;17.57;;;;;;;21.35;39.07;95521.69;6158597;28;104128;-80
2022/11/15 06:24:43;;;;;;;18.57;16.97;;;;;;;21.37;38.88;95530.19;6168274;28;105263;-81
2022/11/15 06:27:52;;;;;;;19.53;17.73;;;;;;;21.39;39.21;95527.22;6166951;28;103381;-81
2022/11/15 06:30:55;;;;;;;19.07;17.27;;;;;;;21.37;39.04;95530.19;6168136;28;104652;-80
2022/11/15 06:33:59;;;;;;;18.17;16.57;;;;;;;21.40;38.85;95532.25;6160699;28;105029;-81
2022/11/15 06:37:02;;;;;;;18.10;16.50;;;;;;;21.40;38.70;95537.59;6168454;28;105563;-81
2022/11/15 06:40:08;;;;;;;17.83;16.13;;;;;;;21.39;38.50;95528.03;6168732;28;104337;-81
2022/11/15 06:43:11;;;;;;;17.90;16.40;;;;;;;21.39;38.66;95521.91;6161655;28;106226;-79
2022/11/15 06:46:14;;;;;;;18.30;16.70;;;;;;;21.41;38.53;95528.50;6166081;28;104191;-81
2022/11/15 06:49:18;;;;;;;16.83;15.30;;;;;;;21.44;38.49;95527.94;6166963;28;104883;-81
2022/11/15 06:52:21;;;;;;;17.27;15.67;;;;;;;21.38;38.79;95525.66;6167087;28;104160;-80
2022/11/15 06:55:26;;;;;;;16.60;15.10;;;;;;;21.41;38.38;95525.84;6159344;28;103275;-82
2022/11/15 06:58:29;;;;;;;17.07;15.60;;;;;;;21.40;38.60;95523.47;6171174;28;103910;-84
2022/11/15 07:01:32;;;;;;;17.37;15.87;;;;;;;21.40;38.48;95523.47;6171227;28;106349;-83
2022/11/15 07:04:37;;;;;;;17.40;15.80;;;;;;;21.41;38.44;95531.19;6170830;28;105214;-80
2022/11/15 07:07:40;;;;;;;18.13;16.60;;;;;;;21.42;38.47;95519.44;6161783;28;103691;-80
2022/11/15 07:10:45;;;;;;;16.37;14.90;;;;;;;21.43;38.07;95515.69;6170413;28;104495;-81
2022/11/15 07:13:48;;;;;;;17.40;15.90;;;;;;;21.43;38.08;95512.25;6172155;28;103647;-80
2022/11/15 07:16:52;;;;;;;17.10;15.50;;;;;;;21.42;38.04;95523.97;6166794;28;103534;-80
2022/11/15 07:19:55;;;;;;;15.27;13.97;;;;;;;21.42;38.00;95514.13;6166889;28;102786;-81
2022/11/15 07:23:01;;;;;;;16.47;15.07;;;;;;;21.42;38.33;95511.47;6170780;28;106311;-80
2022/11/15 07:26:05;;;;;;;16.53;15.03;;;;;;;21.42;37.95;95508.00;6169605;28;103274;-81
2022/11/15 07:29:09;;;;;;;17.23;15.63;;;;;;;21.41;38.12;95506.44;6160397;28;103315;-81
2022/11/15 07:32:12;;;;;;;15.43;14.13;;;;;;;21.39;38.13;95501.41;6170492;28;105988;-80
2022/11/15 07:35:15;;;;;;;16.20;14.90;;;;;;;21.40;38.14;95505.63;6171402;28;107571;-81
2022/11/15 07:38:20;;;;;;;15.23;13.87;;;;;;;21.40;38.04;95510.97;6172588;28;106319;-81
2022/11/15 07:41:24;;;;;;;15.57;14.17;;;;;;;21.39;37.81;95500.59;6164246;28;103482;-82
2022/11/15 07:44:27;;;;;;;15.17;13.90;;;;;;;21.42;37.88;95510.66;6172791;28;107648;-82
2022/11/15 07:47:30;;;;;;;15.10;13.80;;;;;;;21.42;38.09;95510.66;6173580;28;103080;-82
2022/11/15 07:50:33;;;;;;;15.50;14.13;;;;;;;21.42;37.92;95508.78;6171354;28;105006;-79
2022/11/15 07:53:37;;;;;;;15.40;14.00;;;;;;;21.39;37.95;95506.72;6162753;28;103272;-82
2022/11/15 07:56:41;;;;;;;16.17;14.77;;;;;;;21.40;37.80;95505.63;6170696;28;106051;-82
2022/11/15 07:59:45;;;;;;;15.27;13.97;;;;;;;21.43;37.53;95506.94;6172652;28;103392;-82
2022/11/15 08:02:48;;;;;;;14.93;13.43;;;;;;;21.42;37.68;95514.13;6163145;28;105479;-81
2022/11/15 08:05:52;;;;;;;15.53;14.17;;;;;;;21.42;37.90;95511.47;6168312;28;103065;-81
2022/11/15 08:08:55;;;;;;;15.03;13.63;;;;;;;21.42;37.68;95503.47;6169602;28;103747;-81
2022/11/15 08:12:00;;;;;;;15.53;14.20;;;;;;;21.42;38.04;95505.34;6168813;28;106758;-80
2022/11/15 08:15:03;;;;;;;13.97;12.87;;;;;;;21.43;37.40;95504.25;6161261;28;105690;-81
2022/11/15 08:18:10;;;;;;;14.10;12.87;;;;;;;21.44;37.69;95503.97;6168443;28;103128;-81
2022/11/15 08:21:18;;;;;;;14.93;13.50;;;;;;;21.45;37.79;95504.75;6169461;28;106492;-81
2022/11/15 08:24:21;;;;;;;14.73;13.43;;;;;;;21.45;37.41;95500.22;6169252;28;103033;-80
2022/11/15 08:27:26;;;;;;;14.20;12.90;;;;;;;21.42;37.94;95497.34;6161186;28;103087;-80
2022/11/15 08:30:29;;;;;;;14.77;13.47;;;;;;;21.43;37.66;95499.72;6167725;28;104378;-81
2022/11/15 08:33:33;;;;;;;15.03;13.53;;;;;;;21.44;37.92;95498.66;6168622;28;103068;-81
2022/11/15 08:36:37;;;;;;;14.67;13.27;;;;;;;21.43;37.46;95497.06;6163881;28;103701;-81
2022/11/15 08:39:48;;;;;;;13.47;12.27;;;;;;;21.40;37.79;95489.66;6166688;28;103958;-81
2022/11/15 08:42:52;;;;;;;14.83;13.53;;;;;;;21.44;37.63;95493.31;6168784;28;104699;-81
2022/11/15 08:45:56;;;;;;;14.97;13.67;;;;;;;21.46;37.63;95493.81;6168838;28;103573;-80
2022/11/15 08:48:59;;;;;;;14.97;13.57;;;;;;;21.43;37.71;95485.63;6159172;28;105437;-81
2022/11/15 08:52:03;;;;;;;14.57;13.27;;;;;;;21.41;37.68;95477.94;6168613;28;103119;-81
2022/11/15 08:55:07;;;;;;;14.63;13.40;;;;;;;21.40;37.56;95476.34;6168160;28;106264;-81
2022/11/15 08:58:11;;;;;;;15.43;14.03;;;;;;;21.45;37.44;95470.16;6169276;28;104616;-81
2022/11/15 09:01:17;;;;;;;13.90;12.60;;;;;;;21.43;37.55;95475.75;6159281;28;103435;-81
2022/11/15 09:04:21;;;;;;;15.40;14.00;;;;;;;21.43;37.68;95469.66;6168452;28;104901;-81
2022/11/15 09:07:24;;;;;;;14.27;13.07;;;;;;;21.43;37.35;95459.78;6167942;28;105474;-81
2022/11/15 09:10:28;;;;;;;13.93;12.73;;;;;;;21.43;37.63;95456.34;6163687;28;107422;-81
2022/11/15 09:13:32;;;;;;;14.40;13.10;;;;;;;21.45;37.82;95456.84;6163374;28;103021;-81
2022/11/15 09:16:35;;;;;;;15.17;13.83;;;;;;;21.42;37.78;95452.09;6167961;28;104167;-81
2022/11/15 09:19:39;;;;;;;15.07;13.73;;;;;;;21.43;37.48;95448.34;6166842;28;102796;-82
2022/11/15 09:22:42;;;;;;;14.93;13.63;;;;;;;21.40;37.69;95441.75;6160735;28;104117;-81
2022/11/15 09:25:46;;;;;;;15.07;13.67;;;;;;;21.41;37.60;95443.31;6173730;28;105962;-82
2022/11/15 09:28:50;;;;;;;14.10;12.90;;;;;;;21.44;37.29;95442.72;6170936;28;104040;-82
2022/11/15 09:31:54;;;;;;;15.37;14.03;;;;;;;21.48;37.56;95432.28;6167873;28;103034;-82
2022/11/15 09:34:57;;;;;;;14.77;13.47;;;;;;;21.47;37.43;95436.03;6160361;28;103534;-81
2022/11/15 09:38:00;;;;;;;14.70;13.33;;;;;;;21.47;37.74;95426.16;6168795;28;105309;-81
2022/11/15 09:41:33;;;;;;;14.73;13.53;;;;;;;21.48;37.62;95418.97;6169040;28;104397;-82
2022/11/15 09:44:49;;;;;;;14.80;13.40;;;;;;;21.47;37.14;95409.41;6162719;28;103941;-80
2022/11/15 09:48:15;;;;;;;14.93;13.57;;;;;;;21.48;37.72;95409.09;6167568;28;103604;-80
2022/11/15 09:51:26;;;;;;;14.07;12.87;;;;;;;21.48;37.41;95409.09;6167160;28;103091;-81
2022/11/15 09:54:32;;;;;;;14.87;13.53;;;;;;;21.48;37.60;95406.44;6170464;28;106896;-81
2022/11/15 09:58:00;;;;;;;14.10;12.80;;;;;;;21.48;37.80;95401.13;6159975;28;103090;-81
2022/11/15 10:01:09;;;;;;;14.40;13.10;;;;;;;21.48;37.59;95398.47;6169876;28;102927;-81
2022/11/15 10:04:14;;;;;;;14.20;12.93;;;;;;;21.49;37.22;95392.06;6167020;28;106367;-80
2022/11/15 10:07:24;;;;;;;13.47;12.37;;;;;;;21.47;37.71;95394.22;6162159;28;105227;-81
2022/11/15 10:10:35;;;;;;;14.50;13.20;;;;;;;21.47;37.73;95380.91;6166806;28;102859;-80
2022/11/15 10:13:43;;;;;;;14.63;13.23;;;;;;;21.48;37.39;95385.16;6168423;28;104163;-81
2022/11/15 10:17:22;;;;;;;14.17;12.87;;;;;;;21.48;37.46;95379.03;6169786;28;106633;-81
2022/11/15 10:20:27;;;;;;;14.40;13.17;;;;;;;21.48;37.54;95371.84;6159174;28;104985;-81
2022/11/15 10:23:33;;;;;;;15.07;13.60;;;;;;;21.47;37.69;95369.47;6170012;28;106924;-81
2022/11/15 10:26:36;;;;;;;13.87;12.77;;;;;;;21.47;37.91;95375.59;6169435;28;103664;-81
2022/11/15 10:29:45;;;;;;;16.17;14.67;;;;;;;21.47;37.69;95364.16;6165561;28;105869;-81
2022/11/15 10:32:50;;;;;;;13.63;12.43;;;;;;;21.48;37.38;95371.84;6167951;28;104271;-81
2022/11/15 10:36:25;;;;;;;15.50;14.10;;;;;;;21.48;37.45;95363.84;6178753;28;104444;-82
2022/11/15 10:39:28;;;;;;;15.00;13.70;;;;;;;21.45;38.08;95350.34;6177990;28;103237;-82
2022/11/15 10:42:31;;;;;;;14.90;13.50;;;;;;;21.47;37.84;95343.63;6175988;28;102958;-81
2022/11/15 10:45:35;;;;;;;14.03;12.73;;;;;;;21.47;37.59;95332.97;6185400;28;102895;-80
2022/11/15 10:48:40;;;;;;;14.23;13.00;;;;;;;21.49;37.42;95330.03;6184033;28;104000;-81
2022/11/15 10:51:45;;;;;;;14.50;13.10;;;;;;;21.46;37.82;95331.41;6185559;28;102710;-81
2022/11/15 10:54:51;;;;;;;14.70;13.40;;;;;;;21.33;37.89;95304.75;6176605;28;103255;-82
2022/11/15 10:57:58;;;;;;;14.60;13.30;;;;;;;21.46;37.44;95323.41;6184328;28;102749;-81
2022/11/15 11:01:11;;;;;;;14.60;13.40;;;;;;;21.49;37.73;95319.38;6184522;28;102491;-81
2022/11/15 11:04:16;;;;;;;14.80;13.30;;;;;;;21.46;38.15;95311.97;6175523;28;104073;-80
2022/11/15 11:07:23;;;;;;;14.50;13.20;;;;;;;21.47;37.47;95303.69;6181352;28;103492;-80
2022/11/15 11:10:26;;;;;;;15.03;13.67;;;;;;;21.50;37.48;95289.00;6182702;28;104106;-80
2022/11/15 11:13:50;;;;;;;14.90;13.47;;;;;;;21.52;37.40;95297.50;6182714;28;102694;-80
2022/11/15 11:16:56;;;;;;;14.50;13.20;;;;;;;21.51;37.56;95288.72;6175731;28;103269;-80
2022/11/15 11:20:27;;;;;;;15.20;13.80;;;;;;;21.49;37.96;95277.56;6184438;28;102954;-81
2022/11/15 11:23:50;;;;;;;14.67;13.27;;;;;;;21.54;37.46;95273.25;6176355;28;103128;-81
2022/11/15 11:27:08;;;;;;;14.70;13.40;;;;;;;21.55;37.24;95269.50;6164800;28;105853;-79
2022/11/15 11:30:18;;;;;;;14.57;13.27;;;;;;;21.53;37.95;95269.78;6172550;28;103316;-81
2022/11/15 11:33:30;;;;;;;15.23;13.93;;;;;;;21.56;37.79;95250.56;6173741;28;104882;-81
2022/11/15 11:36:45;;;;;;;14.67;13.27;;;;;;;21.56;37.37;95249.78;6173156;28;103329;-81
2022/11/15 11:40:02;;;;;;;13.60;12.40;;;;;;;21.56;37.42;95244.44;6162935;28;103122;-81
2022/11/15 11:43:23;;;;;;;15.67;14.37;;;;;;;21.54;37.62;95222.66;6172512;28;103048;-81
2022/11/15 11:46:46;;;;;;;15.07;13.87;;;;;;;21.51;37.40;95229.38;6173462;28;104685;-81
2022/11/15 11:49:52;;;;;;;15.13;13.83;;;;;;;21.54;37.69;95225.31;6165009;28;103227;-81
2022/11/15 11:52:59;;;;;;;14.17;12.97;;;;;;;21.49;38.01;95226.97;6172582;28;102777;-81
2022/11/15 11:56:22;;;;;;;14.20;13.00;;;;;;;21.49;37.88;95218.97;6173208;28;103321;-81
2022/11/15 11:59:34;;;;;;;15.00;13.70;;;;;;;21.51;37.75;95218.72;6173253;28;103694;-80
2022/11/15 12:02:42;;;;;;;14.30;12.90;;;;;;;21.50;37.55;95209.13;6164535;28;103059;-81
2022/11/15 12:05:49;;;;;;;13.77;12.60;;;;;;;21.49;37.59;95208.34;6173650;28;103508;-82
2022/11/15 12:09:02;;;;;;;14.23;12.93;;;;;;;21.50;37.94;95195.81;6171875;28;103677;-80
2022/11/15 12:12:12;;;;;;;14.60;13.30;;;;;;;21.50;37.65;95204.59;6166748;28;104182;-81
2022/11/15 12:15:22;;;;;;;14.13;12.83;;;;;;;21.48;38.25;95188.13;6169220;28;106364;-81
2022/11/15 12:18:25;;;;;;;13.80;12.60;;;;;;;21.52;37.86;95181.13;6170313;28;103197;-81
2022/11/15 12:21:38;;;;;;;13.57;12.47;;;;;;;21.49;37.93;95171.06;6171974;28;102605;-82
2022/11/15 12:24:46;;;;;;;13.90;12.60;;;;;;;21.50;38.09;95169.19;6163815;28;103058;-81
2022/11/15 12:27:56;;;;;;;14.90;13.60;;;;;;;21.47;38.11;95173.22;6172477;28;103644;-82
2022/11/15 12:31:04;;;;;;;16.17;14.70;;;;;;;21.50;37.70;95164.66;6172397;28;102721;-82
2022/11/15 12:34:30;;;;;;;14.20;12.93;;;;;;;21.49;37.80;95157.75;6174522;28;104525;-84
2022/11/15 12:37:57;;;;;;;13.87;12.60;;;;;;;21.50;37.67;95151.34;6169045;28;102724;-82
2022/11/15 12:41:16;;;;;;;13.00;11.90;;;;;;;21.49;37.97;95141.78;6171939;28;102594;-83
2022/11/15 12:44:52;;;;;;;15.17;13.57;;;;;;;21.52;38.10;95140.41;6171698;28;105421;-84
2022/11/15 12:48:12;;;;;;;13.50;12.30;;;;;;;21.51;37.64;95142.28;6153935;28;104471;-81
2022/11/15 12:51:15;;;;;;;13.70;12.60;;;;;;;21.56;38.18;95137.94;6172480;28;102604;-81
2022/11/15 12:54:56;;;;;;;15.20;13.80;;;;;;;21.55;38.17;95136.34;6172672;28;103641;-83
2022/11/15 12:58:42;;;;;;;13.60;12.40;;;;;;;21.51;37.98;95131.63;6165168;28;104089;-83
2022/11/15 13:02:00;;;;;;;13.33;12.23;;;;;;;21.53;38.54;95136.66;6172389;28;102845;-83
2022/11/15 13:05:53;;;;;;;14.67;13.27;;;;;;;21.52;38.34;95124.44;6173315;28;105085;-82
2022/11/15 13:08:57;;;;;;;14.63;13.23;;;;;;;21.49;38.04;95123.13;6168488;28;104147;-82
2022/11/15 13:12:01;;;;;;;14.50;13.20;;;;;;;21.48;38.38;95120.78;6167090;28;102883;-83
2022/11/15 13:15:38;;;;;;;14.87;13.67;;;;;;;21.50;38.00;95108.72;6170565;28;105350;-81
2022/11/15 13:18:55;;;;;;;13.70;12.60;;;;;;;21.49;38.10;95112.47;6169410;28;103725;-82
2022/11/15 13:25:26;;;;;;;14.10;13.00;;;;;;;21.49;37.96;95111.69;6170414;28;104407;-83
2022/11/15 13:28:33;;;;;;;13.93;12.70;;;;;;;21.46;38.44;95097.13;6171051;28;103332;-84
2022/11/15 13:31:43;;;;;;;13.43;12.20;;;;;;;21.51;38.81;95096.25;6166543;28;107515;-83
2022/11/15 13:34:48;;;;;;;14.20;13.00;;;;;;;21.50;38.23;95083.97;6167449;28;104377;-82
2022/11/15 13:37:56;;;;;;;14.40;13.10;;;;;;;21.49;38.26;95087.72;6171480;28;103450;-82
2022/11/15 13:41:00;;;;;;;13.80;12.60;;;;;;;21.46;38.60;95088.34;6170226;28;105542;-81
2022/11/15 13:44:05;;;;;;;13.87;12.67;;;;;;;21.51;38.04;95089.03;6162434;28;102605;-83
2022/11/15 13:47:15;;;;;;;13.70;12.40;;;;;;;21.48;38.40;95084.28;6169225;28;102946;-85
2022/11/15 13:50:22;;;;;;;15.30;13.90;;;;;;;21.47;37.90;95079.25;6170044;28;102729;-83
2022/11/15 13:53:25;;;;;;;15.00;13.60;;;;;;;21.48;38.03;95078.97;6170898;28;103606;-83
2022/11/15 13:56:30;;;;;;;14.77;13.37;;;;;;;21.50;38.44;95079.44;6160644;28;103852;-83
2022/11/15 13:59:36;;;;;;;14.63;13.23;;;;;;;21.47;38.31;95077.38;6169965;28;103760;-83
2022/11/15 14:02:41;;;;;;;14.43;13.13;;;;;;;21.49;38.42;95077.88;6169442;28;102849;-84
2022/11/15 14:06:06;;;;;;;13.77;12.50;;;;;;;21.47;38.46;95077.38;6165032;28;104131;-83
2022/11/15 14:09:32;;;;;;;14.83;13.67;;;;;;;21.47;38.17;95080.06;6167304;28;103501;-83
2022/11/15 14:12:36;;;;;;;15.70;14.20;;;;;;;21.50;38.51;95078.66;6163024;28;104288;-82
2022/11/15 14:15:40;;;;;;;13.80;12.57;;;;;;;21.44;38.17;95069.22;6167171;28;103097;-83
2022/11/15 14:18:47;;;;;;;13.87;12.67;;;;;;;21.46;38.28;95069.69;6160852;28;103443;-83
2022/11/15 14:22:15;;;;;;;13.80;12.60;;;;;;;21.45;38.04;95063.59;6167456;28;104291;-83
2022/11/15 14:25:21;;;;;;;14.43;13.13;;;;;;;21.46;38.11;95062.50;6168251;28;103474;-83